Time;durP1;ratioP1;P1;durP2;ratioP2;P2;SDS_P1;SDS_P2;PMS_P1;PMS_P2;Temp;Humidity;BMP_temperature;BMP_pressure;BME280_temperature;BME280_humidity;BME280_pressure;Samples;Min_cycle;Max_cycle;Signal;HPM_P1;HPM_P2
2023/09/15 00:00:30;;;;;;;0.65;0.50;;;;;;;;;;5023191;28;20033;-60
2023/09/15 00:02:57;;;;;;;1.85;0.60;;;;;;;;;;5025814;28;20417;-60
2023/09/15 00:05:24;;;;;;;1.13;0.73;;;;;;;;;;5006865;28;20090;-61
2023/09/15 00:07:51;;;;;;;1.15;0.60;;;;;;;;;;5025288;28;20046;-60
2023/09/15 00:10:19;;;;;;;0.63;0.60;;;;;;;;;;5024780;28;20582;-60
2023/09/15 00:12:45;;;;;;;1.58;0.88;;;;;;;;;;5024548;28;20496;-60
2023/09/15 00:15:12;;;;;;;0.80;0.63;;;;;;;;;;5025257;28;20053;-60
2023/09/15 00:17:39;;;;;;;0.70;0.50;;;;;;;;;;5024189;28;20069;-61
2023/09/15 00:20:13;;;;;;;0.68;0.40;;;;;;;;;;5025051;28;20042;-61
2023/09/15 00:22:40;;;;;;;0.82;0.60;;;;;;;;;;5024405;28;20073;-61
2023/09/15 00:25:06;;;;;;;0.47;0.40;;;;;;;;;;5024812;28;20037;-60
2023/09/15 00:27:32;;;;;;;0.68;0.55;;;;;;;;;;5025103;28;20052;-60
2023/09/15 00:29:59;;;;;;;0.93;0.40;;;;;;;;;;5023419;28;20048;-60
2023/09/15 00:32:25;;;;;;;0.40;0.40;;;;;;;;;;5024796;28;20421;-60
2023/09/15 00:34:51;;;;;;;0.88;0.60;;;;;;;;;;5024987;28;20053;-61
2023/09/15 00:37:17;;;;;;;1.17;0.60;;;;;;;;;;5024893;28;20044;-61
2023/09/15 00:39:43;;;;;;;0.82;0.60;;;;;;;;;;5023609;28;20037;-61
2023/09/15 00:42:09;;;;;;;0.77;0.50;;;;;;;;;;5024945;28;20385;-60
2023/09/15 00:44:35;;;;;;;0.40;0.40;;;;;;;;;;5023215;28;20074;-61
2023/09/15 00:47:01;;;;;;;0.57;0.47;;;;;;;;;;5024992;28;20045;-60
2023/09/15 00:49:28;;;;;;;1.05;0.60;;;;;;;;;;5024320;28;20065;-60
2023/09/15 00:51:54;;;;;;;0.73;0.70;;;;;;;;;;5024903;28;20168;-61
2023/09/15 00:54:21;;;;;;;1.25;0.60;;;;;;;;;;5024593;28;20191;-61
2023/09/15 00:56:47;;;;;;;0.77;0.60;;;;;;;;;;5025222;28;20492;-60
2023/09/15 00:59:14;;;;;;;1.42;0.93;;;;;;;;;;5024150;28;20493;-60
2023/09/15 01:01:40;;;;;;;1.08;0.88;;;;;;;;;;5024747;28;20408;-60
2023/09/15 01:04:08;;;;;;;1.25;0.80;;;;;;;;;;5024731;28;20040;-60
2023/09/15 01:06:34;;;;;;;1.35;0.57;;;;;;;;;;5023175;28;20075;-60
2023/09/15 01:09:01;;;;;;;0.63;0.50;;;;;;;;;;5025236;28;20049;-60
2023/09/15 01:11:27;;;;;;;1.80;0.45;;;;;;;;;;5024968;28;20107;-60
2023/09/15 01:13:53;;;;;;;1.55;0.57;;;;;;;;;;5024057;28;20043;-60
2023/09/15 01:16:23;;;;;;;0.30;0.25;;;;;;;;;;5024410;28;20042;-60
2023/09/15 01:18:49;;;;;;;1.55;0.60;;;;;;;;;;5024407;28;20053;-60
2023/09/15 01:21:24;;;;;;;0.45;0.40;;;;;;;;;;5023916;28;20042;-60
2023/09/15 01:24:09;;;;;;;1.25;0.80;;;;;;;;;;5024914;28;20083;-60
2023/09/15 01:26:35;;;;;;;0.40;0.40;;;;;;;;;;5023808;28;20047;-60
2023/09/15 01:29:05;;;;;;;1.15;0.63;;;;;;;;;;5024186;28;20042;-60
2023/09/15 01:31:33;;;;;;;0.80;0.50;;;;;;;;;;5024829;28;20204;-59
2023/09/15 01:33:59;;;;;;;2.22;0.80;;;;;;;;;;5024443;28;20052;-59
2023/09/15 01:36:25;;;;;;;0.60;0.40;;;;;;;;;;5024840;28;20037;-60
2023/09/15 01:38:51;;;;;;;0.65;0.60;;;;;;;;;;5024469;28;20052;-60
2023/09/15 01:41:17;;;;;;;0.68;0.55;;;;;;;;;;5023240;28;20045;-61
2023/09/15 01:43:43;;;;;;;0.60;0.52;;;;;;;;;;5024731;28;20111;-61
2023/09/15 01:46:09;;;;;;;0.30;0.30;;;;;;;;;;5024439;28;20068;-60
2023/09/15 01:48:35;;;;;;;0.77;0.57;;;;;;;;;;5023245;28;20088;-60
2023/09/15 01:51:03;;;;;;;0.90;0.45;;;;;;;;;;5024405;28;20544;-60
2023/09/15 01:53:29;;;;;;;1.08;0.60;;;;;;;;;;5024428;28;20088;-60
2023/09/15 01:55:55;;;;;;;0.52;0.52;;;;;;;;;;5024066;28;20096;-60
2023/09/15 01:58:21;;;;;;;1.35;0.73;;;;;;;;;;5024100;28;20053;-61
2023/09/15 02:00:48;;;;;;;0.85;0.65;;;;;;;;;;5027460;28;20037;-60
2023/09/15 02:03:14;;;;;;;0.40;0.40;;;;;;;;;;5027159;28;20053;-60
2023/09/15 02:05:41;;;;;;;0.90;0.63;;;;;;;;;;5028099;28;20076;-60
2023/09/15 02:08:06;;;;;;;1.02;0.60;;;;;;;;;;5027842;28;20466;-60
2023/09/15 02:10:32;;;;;;;1.40;0.77;;;;;;;;;;5026739;28;20152;-60
2023/09/15 02:12:58;;;;;;;1.10;1.02;;;;;;;;;;5028565;28;20045;-60
2023/09/15 02:15:25;;;;;;;0.98;0.70;;;;;;;;;;5025931;28;20045;-61
2023/09/15 02:17:52;;;;;;;0.80;0.70;;;;;;;;;;5027089;28;20453;-60
2023/09/15 02:20:18;;;;;;;0.70;0.70;;;;;;;;;;5026632;28;20042;-60
2023/09/15 02:22:44;;;;;;;2.00;0.90;;;;;;;;;;5026276;28;20045;-60
2023/09/15 02:25:10;;;;;;;1.65;0.80;;;;;;;;;;5026921;28;20068;-60
2023/09/15 02:27:37;;;;;;;1.45;0.88;;;;;;;;;;5025997;28;20050;-60
2023/09/15 02:30:04;;;;;;;0.55;0.55;;;;;;;;;;5026963;28;20033;-61
2023/09/15 02:32:30;;;;;;;0.63;0.60;;;;;;;;;;5027970;28;20409;-60
2023/09/15 02:34:56;;;;;;;0.80;0.80;;;;;;;;;;5028261;28;20033;-60
2023/09/15 02:37:22;;;;;;;1.70;1.10;;;;;;;;;;5026544;28;20056;-60
2023/09/15 02:39:48;;;;;;;1.60;1.23;;;;;;;;;;5027431;28;20033;-60
2023/09/15 02:42:14;;;;;;;1.27;1.02;;;;;;;;;;5027339;28;20041;-60
2023/09/15 02:44:41;;;;;;;1.30;1.08;;;;;;;;;;5026835;28;20037;-60
2023/09/15 02:47:07;;;;;;;1.00;0.65;;;;;;;;;;5027254;28;20494;-60
2023/09/15 02:49:33;;;;;;;0.80;0.65;;;;;;;;;;5026685;28;20064;-60
2023/09/15 02:52:01;;;;;;;1.90;0.85;;;;;;;;;;5027061;28;20048;-60
2023/09/15 02:54:27;;;;;;;0.60;0.50;;;;;;;;;;5026044;28;20045;-61
2023/09/15 02:56:53;;;;;;;1.02;0.70;;;;;;;;;;5027204;28;20041;-60
2023/09/15 02:59:19;;;;;;;1.00;0.70;;;;;;;;;;5026148;28;20429;-60
2023/09/15 03:01:45;;;;;;;2.42;0.70;;;;;;;;;;5027215;28;20226;-60
2023/09/15 03:04:11;;;;;;;0.55;0.50;;;;;;;;;;5026980;28;20831;-60
2023/09/15 03:06:38;;;;;;;1.10;0.55;;;;;;;;;;5026430;28;20044;-60
2023/09/15 03:09:06;;;;;;;0.77;0.50;;;;;;;;;;5026195;28;20171;-61
2023/09/15 03:11:32;;;;;;;1.38;0.82;;;;;;;;;;5025985;28;20045;-60
2023/09/15 03:13:58;;;;;;;1.02;0.50;;;;;;;;;;5026833;28;20168;-60
2023/09/15 03:16:26;;;;;;;1.20;0.50;;;;;;;;;;5026319;28;20040;-60
2023/09/15 03:18:52;;;;;;;0.80;0.75;;;;;;;;;;5026298;28;20707;-60
2023/09/15 03:21:19;;;;;;;0.75;0.75;;;;;;;;;;5028885;28;20524;-60
2023/09/15 03:23:46;;;;;;;1.80;0.50;;;;;;;;;;5025612;28;20056;-61
2023/09/15 03:26:13;;;;;;;0.85;0.75;;;;;;;;;;5024872;28;20393;-60
2023/09/15 03:28:39;;;;;;;0.77;0.70;;;;;;;;;;5026466;28;20045;-60
2023/09/15 03:31:05;;;;;;;0.70;0.60;;;;;;;;;;5026524;28;20041;-60
2023/09/15 03:33:31;;;;;;;0.50;0.40;;;;;;;;;;5023787;28;20040;-60
2023/09/15 03:35:57;;;;;;;0.45;0.45;;;;;;;;;;5026736;28;20065;-61
2023/09/15 03:38:23;;;;;;;0.57;0.50;;;;;;;;;;5026149;28;20053;-60
2023/09/15 03:40:50;;;;;;;0.40;0.40;;;;;;;;;;5025535;28;20044;-60
2023/09/15 03:43:16;;;;;;;0.80;0.60;;;;;;;;;;5025930;28;20045;-60
2023/09/15 03:45:46;;;;;;;0.40;0.40;;;;;;;;;;5024719;28;20042;-60
2023/09/15 03:48:13;;;;;;;1.40;0.60;;;;;;;;;;5025136;28;20582;-60
2023/09/15 03:50:39;;;;;;;0.43;0.40;;;;;;;;;;5025168;28;20502;-60
2023/09/15 03:53:05;;;;;;;0.50;0.50;;;;;;;;;;5026081;28;20076;-60
2023/09/15 03:55:32;;;;;;;0.90;0.57;;;;;;;;;;5025061;28;20080;-60
2023/09/15 03:57:58;;;;;;;0.80;0.63;;;;;;;;;;5026505;28;20067;-60
2023/09/15 04:00:24;;;;;;;0.50;0.50;;;;;;;;;;5025391;28;20111;-60
2023/09/15 04:02:50;;;;;;;0.60;0.50;;;;;;;;;;5025271;28;20451;-60
2023/09/15 04:05:16;;;;;;;0.32;0.32;;;;;;;;;;5025516;28;20624;-60
2023/09/15 04:07:43;;;;;;;1.77;0.60;;;;;;;;;;5025163;28;20065;-60
2023/09/15 04:10:09;;;;;;;0.55;0.40;;;;;;;;;;5021397;28;20042;-60
2023/09/15 04:12:35;;;;;;;0.57;0.50;;;;;;;;;;5022135;28;20062;-60
2023/09/15 04:15:01;;;;;;;1.02;0.70;;;;;;;;;;5026306;28;20041;-60
2023/09/15 04:17:27;;;;;;;0.57;0.47;;;;;;;;;;5025078;28;20589;-60
2023/09/15 04:19:53;;;;;;;0.70;0.60;;;;;;;;;;5025820;28;20029;-60
2023/09/15 04:22:19;;;;;;;2.58;0.70;;;;;;;;;;5024998;28;20045;-61
2023/09/15 04:24:45;;;;;;;0.47;0.45;;;;;;;;;;5024261;28;20094;-60
2023/09/15 04:27:11;;;;;;;0.80;0.63;;;;;;;;;;5025559;28;20045;-60
2023/09/15 04:29:50;;;;;;;0.50;0.50;;;;;;;;;;5024885;28;20037;-60
2023/09/15 04:32:16;;;;;;;0.30;0.30;;;;;;;;;;5024683;28;20045;-59
2023/09/15 04:34:42;;;;;;;0.70;0.70;;;;;;;;;;5025548;28;20041;-60
2023/09/15 04:37:08;;;;;;;1.58;0.65;;;;;;;;;;5024826;28;20037;-60
2023/09/15 04:39:34;;;;;;;0.50;0.40;;;;;;;;;;5024983;28;20707;-60
2023/09/15 04:42:01;;;;;;;0.30;0.30;;;;;;;;;;5026111;28;20042;-60
2023/09/15 04:44:27;;;;;;;0.90;0.75;;;;;;;;;;5022800;28;20458;-60
2023/09/15 04:46:53;;;;;;;0.55;0.55;;;;;;;;;;5024577;28;20120;-60
2023/09/15 04:49:19;;;;;;;0.40;0.40;;;;;;;;;;5023555;28;20110;-61
2023/09/15 04:51:45;;;;;;;0.55;0.45;;;;;;;;;;5024685;28;20056;-60
2023/09/15 04:54:11;;;;;;;0.68;0.45;;;;;;;;;;5025165;28;20037;-60
2023/09/15 04:56:37;;;;;;;0.50;0.50;;;;;;;;;;5024982;28;20041;-61
2023/09/15 04:59:03;;;;;;;0.73;0.60;;;;;;;;;;5024509;28;20045;-60
2023/09/15 05:01:29;;;;;;;1.27;0.70;;;;;;;;;;5025014;28;20041;-60
2023/09/15 05:03:55;;;;;;;1.13;0.82;;;;;;;;;;5024074;28;20038;-60
2023/09/15 05:06:21;;;;;;;0.40;0.40;;;;;;;;;;5024153;28;20148;-60
2023/09/15 05:08:48;;;;;;;0.40;0.40;;;;;;;;;;5025133;28;20167;-60
2023/09/15 05:11:14;;;;;;;0.70;0.70;;;;;;;;;;5024903;28;20046;-60
2023/09/15 05:13:40;;;;;;;0.60;0.60;;;;;;;;;;5024013;28;20048;-60
2023/09/15 05:16:07;;;;;;;0.82;0.60;;;;;;;;;;5024820;28;20490;-60
2023/09/15 05:18:33;;;;;;;0.70;0.60;;;;;;;;;;5024553;28;20056;-60
2023/09/15 05:20:59;;;;;;;0.75;0.73;;;;;;;;;;5024295;28;20061;-60
2023/09/15 05:23:25;;;;;;;0.70;0.70;;;;;;;;;;5024527;28;20044;-60
2023/09/15 05:25:53;;;;;;;0.80;0.47;;;;;;;;;;5020208;28;20037;-61
2023/09/15 05:28:19;;;;;;;0.73;0.73;;;;;;;;;;5023192;28;20135;-60
2023/09/15 05:30:45;;;;;;;0.90;0.90;;;;;;;;;;5024188;28;20042;-60
2023/09/15 05:33:12;;;;;;;0.82;0.60;;;;;;;;;;5022966;28;20050;-60
2023/09/15 05:35:38;;;;;;;0.70;0.65;;;;;;;;;;5027474;28;20037;-61
2023/09/15 05:38:04;;;;;;;1.70;0.65;;;;;;;;;;5028670;28;20046;-59
2023/09/15 05:40:30;;;;;;;0.95;0.85;;;;;;;;;;5028306;28;20079;-60
2023/09/15 05:42:57;;;;;;;3.90;0.57;;;;;;;;;;5028559;28;20090;-60
2023/09/15 05:45:23;;;;;;;0.65;0.63;;;;;;;;;;5028553;28;21325;-60
2023/09/15 05:47:49;;;;;;;0.77;0.65;;;;;;;;;;5026015;28;20505;-60
2023/09/15 05:50:15;;;;;;;1.42;0.70;;;;;;;;;;5027956;28;20049;-60
2023/09/15 05:52:41;;;;;;;0.85;0.77;;;;;;;;;;5028162;28;20033;-60
2023/09/15 05:55:07;;;;;;;1.25;0.63;;;;;;;;;;5028066;28;20426;-61
2023/09/15 05:57:34;;;;;;;0.90;0.80;;;;;;;;;;5027772;28;20191;-60
2023/09/15 06:00:00;;;;;;;1.85;0.70;;;;;;;;;;5029139;28;20038;-60
2023/09/15 06:02:26;;;;;;;0.68;0.68;;;;;;;;;;5025452;28;20044;-61
2023/09/15 06:04:53;;;;;;;1.00;0.57;;;;;;;;;;5028517;28;20049;-59
2023/09/15 06:07:20;;;;;;;0.68;0.68;;;;;;;;;;5028404;28;20084;-60
2023/09/15 06:09:47;;;;;;;1.27;0.50;;;;;;;;;;5027617;28;20056;-60
2023/09/15 06:12:13;;;;;;;0.95;0.60;;;;;;;;;;5027932;28;20124;-60
2023/09/15 06:14:40;;;;;;;0.73;0.70;;;;;;;;;;5028407;28;20041;-61
2023/09/15 06:17:06;;;;;;;0.50;0.50;;;;;;;;;;5027916;28;20146;-60
2023/09/15 06:19:32;;;;;;;0.70;0.70;;;;;;;;;;5028138;28;20085;-61
2023/09/15 06:21:58;;;;;;;0.98;0.63;;;;;;;;;;5028170;28;20041;-60
2023/09/15 06:24:24;;;;;;;0.90;0.82;;;;;;;;;;5026702;28;20041;-60
2023/09/15 06:26:52;;;;;;;0.82;0.82;;;;;;;;;;5027400;28;20033;-60
2023/09/15 06:29:18;;;;;;;0.80;0.80;;;;;;;;;;5027093;28;20053;-60
2023/09/15 06:31:44;;;;;;;0.90;0.80;;;;;;;;;;5027885;28;20117;-61
2023/09/15 06:34:10;;;;;;;2.08;1.00;;;;;;;;;;5027750;28;20413;-60
2023/09/15 06:36:38;;;;;;;0.75;0.75;;;;;;;;;;5025912;28;20053;-61
2023/09/15 06:39:06;;;;;;;0.95;0.90;;;;;;;;;;5027458;28;20045;-60
2023/09/15 06:41:33;;;;;;;0.75;0.75;;;;;;;;;;5026669;28;20045;-60
2023/09/15 06:43:59;;;;;;;0.73;0.70;;;;;;;;;;5027552;28;20042;-60
2023/09/15 06:46:26;;;;;;;0.60;0.60;;;;;;;;;;5026533;28;20033;-60
2023/09/15 06:48:53;;;;;;;0.55;0.55;;;;;;;;;;5027367;28;20141;-60
2023/09/15 06:51:19;;;;;;;0.82;0.70;;;;;;;;;;5025158;28;20053;-60
2023/09/15 06:53:45;;;;;;;1.23;0.80;;;;;;;;;;5027096;28;20099;-60
2023/09/15 06:56:11;;;;;;;0.60;0.55;;;;;;;;;;5027526;28;20041;-60
2023/09/15 06:58:37;;;;;;;0.43;0.43;;;;;;;;;;5026251;28;21293;-61
2023/09/15 07:01:04;;;;;;;0.70;0.70;;;;;;;;;;5025988;28;20033;-60
2023/09/15 07:03:30;;;;;;;0.60;0.60;;;;;;;;;;5026652;28;20048;-60
2023/09/15 07:05:56;;;;;;;0.63;0.60;;;;;;;;;;5025628;28;20037;-60
2023/09/15 07:08:22;;;;;;;0.40;0.40;;;;;;;;;;5025939;28;20133;-61
2023/09/15 07:10:51;;;;;;;0.70;0.60;;;;;;;;;;5025116;28;20622;-61
2023/09/15 07:13:17;;;;;;;1.48;0.90;;;;;;;;;;5021461;28;20111;-60
2023/09/15 07:15:44;;;;;;;0.73;0.70;;;;;;;;;;5025584;28;20452;-60
2023/09/15 07:18:10;;;;;;;1.15;0.90;;;;;;;;;;5024550;28;20053;-60
2023/09/15 07:20:36;;;;;;;1.10;0.55;;;;;;;;;;5024458;28;20404;-61
2023/09/15 07:23:04;;;;;;;1.30;1.10;;;;;;;;;;5025328;28;20049;-60
2023/09/15 07:25:30;;;;;;;1.30;0.82;;;;;;;;;;5025642;28;20128;-61
2023/09/15 07:27:56;;;;;;;0.68;0.63;;;;;;;;;;5023424;28;20073;-60
2023/09/15 07:30:22;;;;;;;1.48;0.93;;;;;;;;;;5025686;28;20064;-59
2023/09/15 07:32:48;;;;;;;0.77;0.77;;;;;;;;;;5025749;28;20543;-60
2023/09/15 07:35:14;;;;;;;0.95;0.85;;;;;;;;;;5026703;28;20049;-61
2023/09/15 07:37:41;;;;;;;0.50;0.50;;;;;;;;;;5025773;28;20096;-60
2023/09/15 07:40:08;;;;;;;1.10;0.75;;;;;;;;;;5021994;28;20037;-60
2023/09/15 07:42:34;;;;;;;0.77;0.75;;;;;;;;;;5023941;28;20495;-60
2023/09/15 07:45:01;;;;;;;1.67;1.23;;;;;;;;;;5026691;28;20050;-61
2023/09/15 07:47:27;;;;;;;1.30;1.20;;;;;;;;;;5023964;28;20037;-60
2023/09/15 07:49:53;;;;;;;5.57;2.20;;;;;;;;;;5027144;28;20117;-61
2023/09/15 07:52:19;;;;;;;2.05;1.45;;;;;;;;;;5026002;28;20049;-60
2023/09/15 07:54:45;;;;;;;1.98;1.67;;;;;;;;;;5026478;28;20374;-61
2023/09/15 07:57:11;;;;;;;1.45;1.35;;;;;;;;;;5026996;28;20480;-61
2023/09/15 07:59:38;;;;;;;3.15;1.38;;;;;;;;;;5026729;28;20390;-60
2023/09/15 08:02:04;;;;;;;2.35;1.35;;;;;;;;;;5026695;28;20052;-61
2023/09/15 08:04:30;;;;;;;1.63;1.50;;;;;;;;;;5027137;28;20116;-61
2023/09/15 08:06:56;;;;;;;1.75;1.17;;;;;;;;;;5026791;28;20493;-60
2023/09/15 08:09:22;;;;;;;1.27;0.90;;;;;;;;;;5026020;28;20053;-60
2023/09/15 08:11:48;;;;;;;1.40;1.30;;;;;;;;;;5026762;28;20056;-61
2023/09/15 08:14:14;;;;;;;2.13;0.98;;;;;;;;;;5026413;28;20045;-61
2023/09/15 08:16:40;;;;;;;1.42;0.70;;;;;;;;;;5025801;28;20041;-60
2023/09/15 08:19:07;;;;;;;1.83;1.10;;;;;;;;;;5026359;28;20048;-61
2023/09/15 08:21:33;;;;;;;1.33;0.57;;;;;;;;;;5026703;28;20048;-62
2023/09/15 08:23:59;;;;;;;4.07;1.77;;;;;;;;;;5018042;28;20057;-61
2023/09/15 08:26:25;;;;;;;2.25;1.40;;;;;;;;;;5026325;28;20041;-61
2023/09/15 08:28:52;;;;;;;2.60;1.85;;;;;;;;;;5023444;28;20254;-61
2023/09/15 08:31:18;;;;;;;3.10;1.75;;;;;;;;;;5022842;28;20220;-62
2023/09/15 08:33:44;;;;;;;1.65;1.50;;;;;;;;;;5024639;28;20739;-62
2023/09/15 08:36:10;;;;;;;1.90;1.30;;;;;;;;;;5023852;28;20046;-61
2023/09/15 08:38:36;;;;;;;1.70;1.33;;;;;;;;;;5024615;28;20065;-61
2023/09/15 08:41:06;;;;;;;3.22;2.30;;;;;;;;;;5024821;28;20402;-62
2023/09/15 08:43:32;;;;;;;2.50;1.45;;;;;;;;;;5023427;28;20053;-62
2023/09/15 08:45:59;;;;;;;1.75;1.38;;;;;;;;;;5025828;28;20068;-64
2023/09/15 08:48:26;;;;;;;0.95;0.85;;;;;;;;;;5014945;28;20143;-62
2023/09/15 08:50:52;;;;;;;1.77;1.30;;;;;;;;;;5022511;28;20042;-62
2023/09/15 08:53:19;;;;;;;3.38;1.70;;;;;;;;;;5026095;28;20044;-61
2023/09/15 08:55:45;;;;;;;2.17;1.60;;;;;;;;;;5025932;28;20037;-61
2023/09/15 08:58:12;;;;;;;2.08;1.65;;;;;;;;;;5025432;28;20261;-61
2023/09/15 09:00:38;;;;;;;1.77;1.38;;;;;;;;;;5025829;28;20033;-61
2023/09/15 09:03:05;;;;;;;1.52;1.42;;;;;;;;;;5026177;28;20094;-61
2023/09/15 09:05:32;;;;;;;2.00;1.60;;;;;;;;;;5025561;28;20037;-60
2023/09/15 09:08:00;;;;;;;5.55;1.45;;;;;;;;;;5017637;28;20371;-61
2023/09/15 09:10:26;;;;;;;2.95;1.40;;;;;;;;;;5025595;28;20065;-60
2023/09/15 09:12:52;;;;;;;1.95;1.27;;;;;;;;;;5020406;28;20037;-60
2023/09/15 09:15:21;;;;;;;1.65;1.00;;;;;;;;;;5024887;28;20072;-62
2023/09/15 09:17:47;;;;;;;2.50;1.58;;;;;;;;;;5024950;28;20057;-61
2023/09/15 09:20:28;;;;;;;1.65;1.45;;;;;;;;;;5024318;28;20045;-61
2023/09/15 09:22:54;;;;;;;3.70;1.60;;;;;;;;;;5015087;28;20042;-61
2023/09/15 09:25:27;;;;;;;4.30;2.00;;;;;;;;;;5013543;28;20514;-61
2023/09/15 09:27:55;;;;;;;2.53;1.77;;;;;;;;;;5015264;28;20088;-60
2023/09/15 09:30:23;;;;;;;4.30;2.05;;;;;;;;;;5017624;28;20045;-61
2023/09/15 09:32:50;;;;;;;1.77;1.40;;;;;;;;;;5016981;28;20041;-61
2023/09/15 09:35:16;;;;;;;1.65;1.55;;;;;;;;;;5014453;28;20085;-61
2023/09/15 09:37:43;;;;;;;3.30;1.25;;;;;;;;;;5014056;28;20045;-61
2023/09/15 09:40:09;;;;;;;1.80;1.60;;;;;;;;;;5013660;28;20549;-61
2023/09/15 09:42:35;;;;;;;2.38;1.85;;;;;;;;;;5024511;28;20446;-61
2023/09/15 09:45:03;;;;;;;2.03;1.48;;;;;;;;;;5016171;28;20140;-61
2023/09/15 09:47:29;;;;;;;1.73;1.60;;;;;;;;;;5012036;28;20041;-61
2023/09/15 09:49:55;;;;;;;2.97;2.33;;;;;;;;;;5013133;28;20207;-61
2023/09/15 09:52:22;;;;;;;2.13;1.80;;;;;;;;;;5014399;28;20056;-61
2023/09/15 09:54:50;;;;;;;1.95;1.67;;;;;;;;;;5024432;28;20037;-61
2023/09/15 09:57:16;;;;;;;3.25;1.50;;;;;;;;;;5024662;28;20045;-61
2023/09/15 09:59:43;;;;;;;2.85;2.00;;;;;;;;;;5024993;28;20500;-61
2023/09/15 10:02:09;;;;;;;4.80;2.20;;;;;;;;;;5016581;28;20086;-62
2023/09/15 10:04:35;;;;;;;2.47;2.08;;;;;;;;;;5015618;28;20049;-61
2023/09/15 10:07:01;;;;;;;2.78;2.00;;;;;;;;;;5017143;28;20132;-62
2023/09/15 10:09:27;;;;;;;2.60;2.10;;;;;;;;;;5017272;28;20160;-60
2023/09/15 10:11:53;;;;;;;2.70;1.88;;;;;;;;;;5016948;28;20069;-61
2023/09/15 10:14:20;;;;;;;2.75;2.20;;;;;;;;;;5018881;28;20046;-61
2023/09/15 10:16:47;;;;;;;2.72;2.30;;;;;;;;;;5023179;28;20053;-60
2023/09/15 10:19:14;;;;;;;2.42;1.65;;;;;;;;;;5023959;28;20056;-61
2023/09/15 10:21:41;;;;;;;2.70;2.38;;;;;;;;;;5024430;28;20091;-61
2023/09/15 10:24:08;;;;;;;2.25;2.05;;;;;;;;;;5026930;28;20048;-61
2023/09/15 10:26:35;;;;;;;3.05;2.30;;;;;;;;;;5028771;28;20573;-61
2023/09/15 10:29:02;;;;;;;2.45;1.98;;;;;;;;;;5028600;28;20144;-61
2023/09/15 10:31:32;;;;;;;2.38;2.17;;;;;;;;;;5028841;28;20041;-61
2023/09/15 10:34:04;;;;;;;2.65;1.30;;;;;;;;;;5028960;28;20084;-61
2023/09/15 10:36:32;;;;;;;1.23;1.13;;;;;;;;;;5020350;28;20040;-61
2023/09/15 10:38:58;;;;;;;1.42;1.33;;;;;;;;;;5028134;28;20044;-62
2023/09/15 10:41:30;;;;;;;1.98;1.45;;;;;;;;;;5025811;28;20482;-61
2023/09/15 10:43:57;;;;;;;2.55;1.40;;;;;;;;;;5026908;28;20041;-60
2023/09/15 10:46:34;;;;;;;1.88;1.33;;;;;;;;;;5025793;28;20689;-61
2023/09/15 10:49:01;;;;;;;1.33;1.23;;;;;;;;;;5028248;28;20095;-61
2023/09/15 10:51:27;;;;;;;2.05;1.40;;;;;;;;;;5024906;28;20053;-61
2023/09/15 10:53:56;;;;;;;1.60;1.40;;;;;;;;;;5027097;28;20076;-62
2023/09/15 10:56:22;;;;;;;3.38;1.70;;;;;;;;;;5024598;28;20065;-61
2023/09/15 10:58:48;;;;;;;1.67;1.40;;;;;;;;;;5020810;28;20124;-62
2023/09/15 11:01:15;;;;;;;1.77;1.60;;;;;;;;;;5028109;28;20446;-61
2023/09/15 11:03:41;;;;;;;3.78;1.60;;;;;;;;;;5027051;28;20543;-61
2023/09/15 11:06:12;;;;;;;2.33;1.90;;;;;;;;;;5027758;28;20644;-61
2023/09/15 11:08:38;;;;;;;3.67;1.98;;;;;;;;;;5027981;28;20366;-61
2023/09/15 11:11:07;;;;;;;2.60;1.88;;;;;;;;;;5028099;28;20048;-62
2023/09/15 11:13:33;;;;;;;1.67;1.48;;;;;;;;;;5027857;28;20107;-62
2023/09/15 11:15:59;;;;;;;1.38;1.27;;;;;;;;;;5027607;28;20038;-61
2023/09/15 11:18:26;;;;;;;2.42;0.93;;;;;;;;;;5026467;28;20042;-61
2023/09/15 11:20:52;;;;;;;1.88;1.20;;;;;;;;;;5027622;28;20127;-61
2023/09/15 11:23:18;;;;;;;1.08;0.98;;;;;;;;;;5027408;28;20490;-61
2023/09/15 11:25:45;;;;;;;1.30;1.13;;;;;;;;;;5026810;28;20071;-61
2023/09/15 11:28:14;;;;;;;2.30;1.02;;;;;;;;;;5025961;28;20049;-61
2023/09/15 11:30:41;;;;;;;1.65;1.23;;;;;;;;;;5021436;28;20540;-61
2023/09/15 11:33:08;;;;;;;2.88;1.70;;;;;;;;;;5019139;28;20038;-61
2023/09/15 11:35:34;;;;;;;2.47;1.55;;;;;;;;;;5016628;28;20073;-61
2023/09/15 11:38:05;;;;;;;1.55;1.25;;;;;;;;;;5017264;28;20327;-61
2023/09/15 11:40:31;;;;;;;2.15;1.48;;;;;;;;;;5026235;28;20179;-61
2023/09/15 11:43:00;;;;;;;1.88;1.55;;;;;;;;;;5017078;28;20461;-61
2023/09/15 11:45:28;;;;;;;2.50;1.20;;;;;;;;;;5016683;28;20045;-61
2023/09/15 11:47:58;;;;;;;1.73;1.35;;;;;;;;;;5017709;28;20498;-62
2023/09/15 11:50:25;;;;;;;3.20;1.50;;;;;;;;;;5020604;28;20049;-61
2023/09/15 11:52:51;;;;;;;3.75;2.13;;;;;;;;;;5024636;28;20050;-62
2023/09/15 11:55:21;;;;;;;2.45;1.58;;;;;;;;;;5021817;28;20037;-62
2023/09/15 11:57:48;;;;;;;1.55;1.35;;;;;;;;;;5025306;28;20436;-61
2023/09/15 12:00:19;;;;;;;2.40;1.80;;;;;;;;;;5016378;28;20052;-61
2023/09/15 12:02:46;;;;;;;3.80;1.63;;;;;;;;;;5020226;28;20044;-62
2023/09/15 12:05:12;;;;;;;1.90;1.60;;;;;;;;;;5022061;28;20103;-62
2023/09/15 12:07:39;;;;;;;1.35;1.10;;;;;;;;;;5019117;28;20038;-62
2023/09/15 12:10:05;;;;;;;3.65;1.10;;;;;;;;;;5016737;28;20053;-61
2023/09/15 12:12:31;;;;;;;1.35;1.17;;;;;;;;;;5017551;28;20045;-61
2023/09/15 12:15:01;;;;;;;1.23;1.13;;;;;;;;;;5025304;28;20040;-62
2023/09/15 12:17:30;;;;;;;1.13;1.02;;;;;;;;;;5023185;28;20132;-61
2023/09/15 12:19:59;;;;;;;1.20;1.10;;;;;;;;;;5025545;28;20151;-62
2023/09/15 12:22:38;;;;;;;0.80;0.80;;;;;;;;;;5023943;28;20548;-62
2023/09/15 12:25:04;;;;;;;1.27;1.17;;;;;;;;;;5025193;28;20382;-61
2023/09/15 12:27:32;;;;;;;0.93;0.90;;;;;;;;;;5020690;28;20506;-61
2023/09/15 12:30:01;;;;;;;1.20;1.00;;;;;;;;;;5024882;28;20064;-62
2023/09/15 12:32:27;;;;;;;1.20;0.90;;;;;;;;;;5003409;28;20691;-60
2023/09/15 12:34:54;;;;;;;2.72;1.50;;;;;;;;;;5022932;28;20405;-61
2023/09/15 12:37:20;;;;;;;1.85;1.33;;;;;;;;;;5023040;28;20064;-58
2023/09/15 12:39:46;;;;;;;2.78;1.63;;;;;;;;;;5023190;28;20045;-58
2023/09/15 12:42:13;;;;;;;1.75;1.65;;;;;;;;;;5024644;28;20044;-59
2023/09/15 12:44:39;;;;;;;2.30;1.50;;;;;;;;;;5022538;28;20076;-59
2023/09/15 12:47:05;;;;;;;3.30;1.10;;;;;;;;;;5026473;28;20029;-61
2023/09/15 12:49:32;;;;;;;2.25;1.30;;;;;;;;;;5026754;28;20517;-61
2023/09/15 12:51:58;;;;;;;2.10;1.15;;;;;;;;;;5026121;28;20033;-63
2023/09/15 12:54:24;;;;;;;2.85;1.90;;;;;;;;;;5027508;28;20063;-59
2023/09/15 12:56:53;;;;;;;1.73;1.20;;;;;;;;;;5017980;28;20033;-61
2023/09/15 12:59:22;;;;;;;2.15;1.50;;;;;;;;;;5022339;28;20045;-59
2023/09/15 13:01:48;;;;;;;1.58;0.93;;;;;;;;;;5023186;28;20600;-64
2023/09/15 13:04:14;;;;;;;1.10;1.00;;;;;;;;;;5024273;28;20112;-63
2023/09/15 13:06:40;;;;;;;2.00;1.63;;;;;;;;;;5014489;28;20042;-59
2023/09/15 13:09:06;;;;;;;1.77;1.30;;;;;;;;;;5021945;28;20132;-61
2023/09/15 13:11:32;;;;;;;1.27;1.05;;;;;;;;;;5019678;28;20050;-60
2023/09/15 13:13:58;;;;;;;1.27;1.17;;;;;;;;;;5024958;28;20037;-60
2023/09/15 13:16:24;;;;;;;1.15;1.00;;;;;;;;;;5023987;28;20140;-60
2023/09/15 13:18:50;;;;;;;2.88;1.30;;;;;;;;;;5017943;28;20098;-61
2023/09/15 13:21:16;;;;;;;1.73;1.08;;;;;;;;;;5023326;28;20580;-62
2023/09/15 13:23:42;;;;;;;1.70;1.45;;;;;;;;;;5020454;28;20046;-61
2023/09/15 13:26:09;;;;;;;2.45;1.70;;;;;;;;;;5021134;28;20059;-61
2023/09/15 13:28:35;;;;;;;1.65;1.10;;;;;;;;;;5025519;28;20547;-60
2023/09/15 13:31:02;;;;;;;1.58;1.10;;;;;;;;;;5023350;28;20091;-59
2023/09/15 13:33:28;;;;;;;1.73;1.00;;;;;;;;;;5025260;28;20037;-60
2023/09/15 13:35:54;;;;;;;0.90;0.80;;;;;;;;;;5025235;28;20132;-60
2023/09/15 13:38:20;;;;;;;1.17;1.00;;;;;;;;;;5025276;28;20080;-60
2023/09/15 13:40:46;;;;;;;1.08;0.90;;;;;;;;;;5025817;28;20068;-60
2023/09/15 13:43:12;;;;;;;0.93;0.80;;;;;;;;;;5023651;28;20485;-60
2023/09/15 13:45:41;;;;;;;1.05;0.95;;;;;;;;;;5025084;28;20037;-60
2023/09/15 13:48:07;;;;;;;1.35;0.80;;;;;;;;;;5025410;28;20054;-60
2023/09/15 13:50:33;;;;;;;1.48;1.10;;;;;;;;;;5025684;28;20589;-60
2023/09/15 13:52:59;;;;;;;1.25;0.93;;;;;;;;;;5024967;28;20080;-60
2023/09/15 13:55:27;;;;;;;1.45;0.80;;;;;;;;;;5024647;28;20568;-61
2023/09/15 13:57:53;;;;;;;2.03;1.15;;;;;;;;;;5027760;28;20064;-61
2023/09/15 14:00:19;;;;;;;0.77;0.63;;;;;;;;;;5027225;28;20037;-60
2023/09/15 14:02:45;;;;;;;2.15;1.40;;;;;;;;;;5027760;28;20029;-61
2023/09/15 14:05:11;;;;;;;1.35;1.00;;;;;;;;;;5027596;28;20072;-61
2023/09/15 14:07:37;;;;;;;1.20;0.98;;;;;;;;;;5027261;28;20041;-60
2023/09/15 14:10:03;;;;;;;1.27;1.02;;;;;;;;;;5029337;28;20045;-60
2023/09/15 14:12:29;;;;;;;1.20;1.00;;;;;;;;;;5020502;28;20052;-60
2023/09/15 14:14:55;;;;;;;0.73;0.73;;;;;;;;;;5016716;28;20045;-59
2023/09/15 14:17:21;;;;;;;1.13;1.00;;;;;;;;;;5017326;28;20042;-60
2023/09/15 14:19:47;;;;;;;1.85;1.27;;;;;;;;;;5018857;28;20057;-60
2023/09/15 14:22:13;;;;;;;3.25;1.30;;;;;;;;;;5020146;28;20048;-60
2023/09/15 14:24:39;;;;;;;1.83;1.00;;;;;;;;;;5019078;28;20061;-61
2023/09/15 14:27:05;;;;;;;2.10;0.90;;;;;;;;;;5029044;28;20045;-60
2023/09/15 14:29:32;;;;;;;2.78;1.38;;;;;;;;;;5027806;28;20106;-60
2023/09/15 14:32:03;;;;;;;1.15;1.00;;;;;;;;;;5028648;28;20036;-59
2023/09/15 14:34:29;;;;;;;3.30;1.30;;;;;;;;;;5019274;28;20046;-60
2023/09/15 14:36:55;;;;;;;2.33;0.85;;;;;;;;;;5019611;28;20049;-60
2023/09/15 14:39:21;;;;;;;1.42;0.90;;;;;;;;;;5016737;28;20752;-61